Time;durP1;ratioP1;P1;durP2;ratioP2;P2;SDS_P1;SDS_P2;PMS_P1;PMS_P2;Temp;Humidity;BMP_temperature;BMP_pressure;BME280_temperature;BME280_humidity;BME280_pressure;Samples;Min_cycle;Max_cycle;Signal;HPM_P1;HPM_P2
2021/05/12 00:01:17;;;;;;;27.55;22.38;;;11.70;99.90;;;;;;5064094;28;20025;-78
2021/05/12 00:03:43;;;;;;;26.08;22.52;;;11.80;99.90;;;;;;5065643;28;20013;-78
2021/05/12 00:06:09;;;;;;;36.05;28.30;;;11.80;99.90;;;;;;5063596;28;20342;-78
2021/05/12 00:08:34;;;;;;;27.90;24.77;;;11.70;99.90;;;;;;5047016;28;20084;-78
2021/05/12 00:11:00;;;;;;;33.25;25.05;;;11.70;99.90;;;;;;5046300;28;20478;-78
2021/05/12 00:13:26;;;;;;;28.52;24.83;;;11.70;99.90;;;;;;5062446;28;20020;-78
2021/05/12 00:15:52;;;;;;;30.15;24.52;;;11.60;99.90;;;;;;5063139;28;20075;-79
2021/05/12 00:18:22;;;;;;;34.13;26.10;;;11.60;99.90;;;;;;5064635;28;20029;-78
2021/05/12 00:20:49;;;;;;;35.35;26.17;;;11.60;99.90;;;;;;5063680;28;20131;-78
2021/05/12 00:23:18;;;;;;;30.40;26.13;;;11.60;99.90;;;;;;5064666;28;20056;-78
2021/05/12 00:25:44;;;;;;;33.10;26.05;;;11.50;99.90;;;;;;5044591;28;20025;-78
2021/05/12 00:28:09;;;;;;;34.83;26.13;;;11.50;99.90;;;;;;5064791;28;20088;-78
2021/05/12 00:30:35;;;;;;;35.35;26.38;;;11.50;99.90;;;;;;5064941;28;20029;-78
2021/05/12 00:33:01;;;;;;;34.78;27.85;;;11.40;99.90;;;;;;5064753;28;20108;-78
2021/05/12 00:35:27;;;;;;;37.65;28.98;;;11.50;99.90;;;;;;5064599;28;20037;-78
2021/05/12 00:37:53;;;;;;;31.52;26.60;;;11.40;99.90;;;;;;5062679;28;20088;-78
2021/05/12 00:40:19;;;;;;;35.67;28.42;;;11.40;99.90;;;;;;5064400;28;20457;-78
2021/05/12 00:42:46;;;;;;;38.83;29.77;;;11.30;99.90;;;;;;5044793;28;20030;-78
2021/05/12 00:45:14;;;;;;;33.08;26.27;;;11.30;99.90;;;;;;5064342;28;20032;-78
2021/05/12 00:47:40;;;;;;;34.22;27.30;;;11.20;99.90;;;;;;5045554;28;20035;-79
2021/05/12 00:50:06;;;;;;;37.08;29.05;;;11.30;99.90;;;;;;5064441;28;20048;-78
2021/05/12 00:52:32;;;;;;;37.50;28.17;;;11.30;99.90;;;;;;5062940;28;20041;-79
2021/05/12 00:54:58;;;;;;;41.10;30.98;;;11.20;99.90;;;;;;5063275;28;20033;-78
2021/05/12 00:57:24;;;;;;;38.58;28.42;;;11.20;99.90;;;;;;5062989;28;20063;-78
2021/05/12 00:59:53;;;;;;;39.25;29.52;;;11.20;99.90;;;;;;5064278;28;20029;-78
2021/05/12 01:02:19;;;;;;;37.37;28.03;;;11.20;99.90;;;;;;5062519;28;20093;-77
2021/05/12 01:04:45;;;;;;;35.08;26.45;;;11.20;99.90;;;;;;5063854;28;20286;-77
2021/05/12 01:07:11;;;;;;;37.40;27.52;;;11.10;99.90;;;;;;5062892;28;20093;-78
2021/05/12 01:09:36;;;;;;;31.55;22.58;;;11.00;99.90;;;;;;5063330;28;20021;-78
2021/05/12 01:12:03;;;;;;;29.17;22.92;;;11.00;99.90;;;;;;5063112;28;20033;-78
2021/05/12 01:14:29;;;;;;;32.83;25.15;;;11.10;99.90;;;;;;5064906;28;20036;-78
2021/05/12 01:16:55;;;;;;;28.60;21.60;;;11.00;99.90;;;;;;5062447;28;20041;-78
2021/05/12 01:19:21;;;;;;;33.33;24.88;;;11.00;99.90;;;;;;5063188;28;20021;-77
2021/05/12 01:21:46;;;;;;;29.55;23.38;;;10.90;99.90;;;;;;5063348;28;20037;-78
2021/05/12 01:24:12;;;;;;;28.92;21.58;;;10.90;99.90;;;;;;5062431;28;20052;-78
2021/05/12 01:26:38;;;;;;;27.08;20.50;;;10.90;99.90;;;;;;5064880;28;20029;-78
2021/05/12 01:29:06;;;;;;;28.00;20.30;;;10.90;99.90;;;;;;5068328;28;20112;-78
2021/05/12 01:31:34;;;;;;;24.60;18.52;;;10.90;99.90;;;;;;5066660;28;20025;-78
2021/05/12 01:34:02;;;;;;;30.40;19.58;;;10.90;99.90;;;;;;5068101;28;20048;-78
2021/05/12 01:36:29;;;;;;;27.77;20.40;;;10.80;99.90;;;;;;5066974;28;20071;-78
2021/05/12 01:38:55;;;;;;;23.27;19.02;;;10.80;99.90;;;;;;5066375;28;20363;-79
2021/05/12 01:41:25;;;;;;;24.02;20.20;;;10.70;99.90;;;;;;5067566;28;20089;-78
2021/05/12 01:43:51;;;;;;;24.02;19.60;;;10.70;99.90;;;;;;5068907;28;20085;-78
2021/05/12 01:46:18;;;;;;;24.13;18.17;;;10.60;99.90;;;;;;5048899;28;20087;-78
2021/05/12 01:48:43;;;;;;;25.55;18.13;;;10.60;99.90;;;;;;5051174;28;20075;-78
2021/05/12 01:51:10;;;;;;;21.98;16.30;;;10.60;99.90;;;;;;5067923;28;20029;-78
2021/05/12 01:53:36;;;;;;;26.63;18.58;;;10.60;99.90;;;;;;5066245;28;20045;-78
2021/05/12 01:56:03;;;;;;;23.58;18.92;;;10.60;99.90;;;;;;5065550;28;20123;-78
2021/05/12 01:58:29;;;;;;;22.08;17.25;;;10.60;99.90;;;;;;5049176;28;20040;-78
2021/05/12 02:00:55;;;;;;;25.55;18.50;;;10.50;99.90;;;;;;5067426;28;20058;-78
2021/05/12 02:03:21;;;;;;;22.83;17.42;;;10.50;99.90;;;;;;5066115;28;20017;-78
2021/05/12 02:09:39;;;;;;;21.92;15.80;;;10.40;99.90;;;;;;4944903;28;20139;-78
2021/05/12 02:12:05;;;;;;;21.08;15.30;;;10.40;99.90;;;;;;4946556;29;20035;-78
2021/05/12 02:14:31;;;;;;;21.27;15.35;;;10.40;99.90;;;;;;4945794;29;20075;-77
2021/05/12 02:16:57;;;;;;;21.42;14.90;;;10.40;99.90;;;;;;4947277;29;20052;-78
2021/05/12 02:19:22;;;;;;;22.08;15.13;;;10.40;99.90;;;;;;4946934;29;20046;-78
2021/05/12 02:21:48;;;;;;;20.27;13.27;;;10.40;99.90;;;;;;4946702;29;20131;-78
2021/05/12 02:24:14;;;;;;;20.35;14.98;;;10.40;99.90;;;;;;4914905;29;20048;-77
2021/05/12 02:26:39;;;;;;;23.13;16.25;;;10.40;99.90;;;;;;4946887;29;20039;-78
2021/05/12 02:29:05;;;;;;;21.80;14.77;;;10.40;99.90;;;;;;4944010;29;20044;-78
2021/05/12 02:31:30;;;;;;;20.13;15.05;;;10.30;99.90;;;;;;4946540;29;20524;-78
2021/05/12 02:33:56;;;;;;;23.67;14.02;;;10.40;99.90;;;;;;4946472;29;20096;-78
2021/05/12 02:36:22;;;;;;;18.30;12.93;;;10.40;99.90;;;;;;4943683;29;20613;-78
2021/05/12 02:38:47;;;;;;;19.05;13.38;;;10.40;99.90;;;;;;4931172;29;20718;-78
2021/05/12 02:41:13;;;;;;;18.52;12.57;;;10.40;99.90;;;;;;4946799;29;20024;-78
2021/05/12 02:43:39;;;;;;;19.73;13.20;;;10.40;99.90;;;;;;4946046;29;20114;-78
2021/05/12 02:46:04;;;;;;;22.02;12.88;;;10.40;99.90;;;;;;5026010;28;20037;-78
2021/05/12 02:48:30;;;;;;;17.27;11.98;;;10.40;99.90;;;;;;5066086;28;20017;-78
2021/05/12 02:50:55;;;;;;;16.48;11.52;;;10.40;99.90;;;;;;5065918;28;20029;-78
2021/05/12 02:53:22;;;;;;;17.77;11.23;;;10.40;99.90;;;;;;5065386;28;20029;-78
2021/05/12 02:55:48;;;;;;;17.55;11.93;;;10.40;99.90;;;;;;5064781;28;20045;-78
2021/05/12 02:58:14;;;;;;;18.92;10.57;;;10.30;99.90;;;;;;5065948;28;20071;-78
2021/05/12 03:00:41;;;;;;;21.38;16.13;;;10.30;99.90;;;;;;5048600;28;20388;-78
2021/05/12 03:03:08;;;;;;;22.55;14.80;;;10.30;99.90;;;;;;5064809;28;20080;-78
2021/05/12 03:05:54;;;;;;;21.33;12.75;;;10.30;99.90;;;;;;5064897;28;20033;-78
2021/05/12 03:08:20;;;;;;;25.13;14.00;;;10.30;99.90;;;;;;5040036;22;20107;-78
2021/05/12 03:10:46;;;;;;;18.10;13.60;;;10.30;99.90;;;;;;5018458;28;20026;-78
2021/05/12 03:13:12;;;;;;;20.10;12.80;;;10.30;99.90;;;;;;5044863;28;20029;-78
2021/05/12 03:15:38;;;;;;;19.55;12.63;;;10.30;99.90;;;;;;5046418;28;20037;-77
2021/05/12 03:18:05;;;;;;;20.83;14.65;;;10.30;99.90;;;;;;5034909;28;20033;-78
2021/05/12 03:20:31;;;;;;;17.38;12.55;;;10.30;99.90;;;;;;5022469;28;20496;-78
2021/05/12 03:22:59;;;;;;;18.77;12.70;;;10.30;99.90;;;;;;5026410;28;20033;-78
2021/05/12 03:25:26;;;;;;;17.17;12.60;;;10.40;99.90;;;;;;5047081;28;20400;-78
2021/05/12 03:27:51;;;;;;;22.13;13.70;;;10.40;99.90;;;;;;5028874;28;20025;-78
2021/05/12 03:30:20;;;;;;;19.73;12.77;;;10.40;99.90;;;;;;5028963;28;20382;-78
2021/05/12 03:32:46;;;;;;;19.92;12.27;;;10.40;99.90;;;;;;5046621;28;20036;-79
2021/05/12 03:35:12;;;;;;;21.40;13.20;;;10.50;99.90;;;;;;5025378;28;20030;-79
2021/05/12 03:37:37;;;;;;;18.33;13.10;;;10.50;99.90;;;;;;5024817;28;20064;-78
2021/05/12 03:40:04;;;;;;;19.92;13.30;;;10.40;99.90;;;;;;5022870;28;20049;-79
2021/05/12 03:42:30;;;;;;;19.92;13.13;;;10.50;99.90;;;;;;5028217;28;20034;-78
2021/05/12 03:44:56;;;;;;;18.50;13.05;;;10.40;99.90;;;;;;5028699;28;20036;-78
2021/05/12 03:47:22;;;;;;;23.77;14.02;;;10.50;99.90;;;;;;5011876;28;20044;-78
2021/05/12 03:49:48;;;;;;;18.63;12.68;;;10.50;99.90;;;;;;5027805;28;20061;-78
2021/05/12 03:52:13;;;;;;;17.40;13.30;;;10.50;99.90;;;;;;5028217;28;20059;-78
2021/05/12 03:54:39;;;;;;;20.15;12.77;;;10.40;99.90;;;;;;5044863;28;20037;-78
2021/05/12 03:57:05;;;;;;;19.27;12.93;;;10.40;99.90;;;;;;5044557;28;20037;-77
2021/05/12 03:59:30;;;;;;;21.25;13.55;;;10.30;99.90;;;;;;5028070;28;20112;-78
2021/05/12 04:01:56;;;;;;;22.85;13.38;;;10.30;99.90;;;;;;5028403;28;20036;-78
2021/05/12 04:04:21;;;;;;;23.48;14.85;;;10.20;99.90;;;;;;5028033;28;20128;-78
2021/05/12 04:06:48;;;;;;;22.60;15.23;;;10.20;99.90;;;;;;5043224;28;20037;-78
2021/05/12 04:09:15;;;;;;;21.10;14.52;;;10.10;99.90;;;;;;5045413;28;20037;-78
2021/05/12 04:11:44;;;;;;;21.02;14.10;;;10.10;99.90;;;;;;5051797;28;20026;-78
2021/05/12 04:14:10;;;;;;;22.10;13.57;;;10.00;99.90;;;;;;5027266;28;20034;-78
2021/05/12 04:16:35;;;;;;;18.52;12.25;;;9.90;99.90;;;;;;5010573;28;20102;-78
2021/05/12 04:19:03;;;;;;;21.42;14.18;;;9.70;99.90;;;;;;5023988;28;20052;-78
2021/05/12 04:21:30;;;;;;;20.73;13.68;;;9.80;99.90;;;;;;5007735;28;20038;-78
2021/05/12 04:23:55;;;;;;;22.75;14.02;;;9.90;99.90;;;;;;5018274;28;20059;-78
2021/05/12 04:26:21;;;;;;;21.75;13.55;;;9.90;99.90;;;;;;5042894;28;20033;-78
2021/05/12 04:28:47;;;;;;;18.77;11.77;;;9.90;99.90;;;;;;5026775;28;20021;-78
2021/05/12 04:31:12;;;;;;;17.55;13.30;;;9.90;99.90;;;;;;5045267;28;20033;-78
2021/05/12 04:33:38;;;;;;;21.75;14.05;;;9.90;99.90;;;;;;5045461;28;20035;-78
2021/05/12 04:36:05;;;;;;;17.90;12.23;;;10.00;99.90;;;;;;5026556;28;20040;-78
2021/05/12 04:38:31;;;;;;;20.52;13.75;;;9.90;99.90;;;;;;5026704;28;20025;-78
2021/05/12 04:40:58;;;;;;;24.08;16.48;;;10.00;99.90;;;;;;5044859;28;20029;-78
2021/05/12 04:43:27;;;;;;;21.67;14.02;;;10.00;99.90;;;;;;5026977;28;20112;-78
2021/05/12 04:45:54;;;;;;;22.00;14.45;;;10.00;99.90;;;;;;5044927;28;20040;-78
2021/05/12 04:48:19;;;;;;;22.83;14.70;;;10.00;99.90;;;;;;5027109;28;20033;-78
2021/05/12 04:50:45;;;;;;;21.85;14.45;;;10.00;99.90;;;;;;5044429;28;20512;-78
2021/05/12 04:53:10;;;;;;;20.30;13.20;;;10.00;99.90;;;;;;5023673;28;20037;-78
2021/05/12 04:55:36;;;;;;;17.33;11.93;;;10.00;99.90;;;;;;5042580;28;20045;-78
2021/05/12 04:58:02;;;;;;;18.85;12.82;;;10.10;99.90;;;;;;5026667;28;20125;-78
2021/05/12 05:00:28;;;;;;;22.23;12.55;;;10.00;99.90;;;;;;5027869;28;20029;-78
2021/05/12 05:02:55;;;;;;;17.67;12.05;;;10.00;99.90;;;;;;5048482;28;20045;-78
2021/05/12 05:05:21;;;;;;;18.70;11.85;;;10.10;99.90;;;;;;5029300;28;20030;-78
2021/05/12 05:07:47;;;;;;;16.23;11.20;;;10.10;99.90;;;;;;5050341;28;20076;-78
2021/05/12 05:10:14;;;;;;;19.08;12.00;;;10.20;99.90;;;;;;5053435;28;20370;-83
2021/05/12 05:12:40;;;;;;;19.42;11.73;;;10.20;99.90;;;;;;5047584;28;20037;-78
2021/05/12 05:15:06;;;;;;;16.80;12.00;;;10.30;99.90;;;;;;5030312;28;20115;-78
2021/05/12 05:17:32;;;;;;;18.42;12.20;;;10.40;99.90;;;;;;5026402;28;20236;-78
2021/05/12 05:19:59;;;;;;;15.35;11.40;;;10.50;99.90;;;;;;5021167;28;20240;-78
2021/05/12 05:22:29;;;;;;;16.45;11.80;;;10.50;99.90;;;;;;5026579;28;20045;-78
2021/05/12 05:24:57;;;;;;;21.90;14.38;;;10.60;99.90;;;;;;5021164;28;20087;-77
2021/05/12 05:27:23;;;;;;;17.63;12.15;;;10.50;99.90;;;;;;5030628;28;20549;-78
2021/05/12 05:29:49;;;;;;;18.02;11.52;;;10.50;99.90;;;;;;5030518;28;20656;-78
2021/05/12 05:32:34;;;;;;;22.02;13.32;;;10.50;99.90;;;;;;5048436;28;20041;-78
2021/05/12 05:35:18;;;;;;;18.30;12.60;;;10.50;99.90;;;;;;5032863;28;20091;-78
2021/05/12 05:38:13;;;;;;;17.58;11.43;;;10.50;99.90;;;;;;5006152;28;20045;-78
2021/05/12 05:40:57;;;;;;;19.58;11.95;;;10.60;99.90;;;;;;5031451;28;20076;-78
2021/05/12 05:43:49;;;;;;;18.38;11.32;;;10.70;99.90;;;;;;5030392;28;20101;-77
2021/05/12 05:46:33;;;;;;;15.65;10.52;;;10.80;99.90;;;;;;5034563;28;20056;-78
2021/05/12 05:49:17;;;;;;;16.98;11.38;;;10.90;99.90;;;;;;5031438;28;20113;-77
2021/05/12 05:52:03;;;;;;;21.35;14.00;;;11.00;99.90;;;;;;5047643;28;20105;-77
2021/05/12 05:54:48;;;;;;;19.35;12.80;;;11.00;99.90;;;;;;5047704;28;20164;-78
2021/05/12 05:57:32;;;;;;;17.00;10.63;;;11.20;99.90;;;;;;5032577;28;20481;-77
2021/05/12 06:00:17;;;;;;;22.70;15.52;;;11.40;99.90;;;;;;5047555;28;20048;-77
2021/05/12 06:02:43;;;;;;;24.08;16.50;;;11.50;99.90;;;;;;5029761;28;20466;-77
2021/05/12 06:08:54;;;;;;;29.23;20.67;;;11.50;99.90;;;;;;4966502;29;20501;-78
2021/05/12 06:11:38;;;;;;;34.55;19.75;;;11.70;99.90;;;;;;4966009;28;20123;-77
2021/05/12 06:14:23;;;;;;;25.85;19.05;;;12.00;99.90;;;;;;4966516;29;20086;-78
2021/05/12 06:17:07;;;;;;;30.67;21.83;;;12.20;99.90;;;;;;4966661;29;20042;-78
2021/05/12 06:19:52;;;;;;;29.00;19.92;;;12.10;99.90;;;;;;4966076;29;20078;-78
2021/05/12 06:22:37;;;;;;;25.63;19.15;;;12.20;99.90;;;;;;4981184;28;20183;-79
2021/05/12 06:25:21;;;;;;;32.05;22.05;;;12.30;99.90;;;;;;4987693;28;20046;-78
2021/05/12 06:28:05;;;;;;;32.88;20.10;;;12.40;99.90;;;;;;4984189;28;20141;-78
2021/05/12 06:30:50;;;;;;;24.38;16.73;;;12.60;99.90;;;;;;4963157;29;20042;-78
2021/05/12 06:33:36;;;;;;;29.27;19.58;;;12.60;99.90;;;;;;4965646;29;20038;-79
2021/05/12 06:36:20;;;;;;;27.67;20.13;;;12.60;99.90;;;;;;4965598;29;20082;-78
2021/05/12 06:39:05;;;;;;;23.20;18.80;;;12.70;99.90;;;;;;4966132;29;20069;-78
2021/05/12 06:41:31;;;;;;;26.33;20.27;;;12.80;99.90;;;;;;4966198;29;20058;-78
2021/05/12 06:43:58;;;;;;;23.65;18.33;;;12.90;99.90;;;;;;4966433;29;20034;-78
2021/05/12 06:46:24;;;;;;;28.10;18.42;;;13.10;99.90;;;;;;5027028;28;20405;-78
2021/05/12 06:48:50;;;;;;;24.20;17.52;;;13.00;99.90;;;;;;5027365;28;20097;-78
2021/05/12 06:51:16;;;;;;;22.77;16.98;;;13.20;99.90;;;;;;5025659;28;20030;-78
2021/05/12 06:53:42;;;;;;;24.23;18.98;;;13.20;99.90;;;;;;5027110;28;20044;-79
2021/05/12 06:56:07;;;;;;;22.42;15.25;;;13.20;99.90;;;;;;5009048;28;20046;-78
2021/05/12 06:58:34;;;;;;;22.00;16.42;;;13.20;99.90;;;;;;5025608;28;20030;-79
2021/05/12 07:01:01;;;;;;;25.42;16.75;;;13.20;99.90;;;;;;5008860;28;20033;-78
2021/05/12 07:03:27;;;;;;;21.23;14.77;;;13.40;99.90;;;;;;5009088;28;20496;-79
2021/05/12 07:05:54;;;;;;;21.15;13.18;;;13.50;99.90;;;;;;5024425;28;20079;-79
2021/05/12 07:08:20;;;;;;;21.75;13.30;;;13.50;99.90;;;;;;5031264;23;20072;-79
2021/05/12 07:10:46;;;;;;;17.17;10.82;;;13.50;99.90;;;;;;5025404;28;20029;-80
2021/05/12 07:13:12;;;;;;;19.60;11.43;;;13.70;99.90;;;;;;5027176;28;20125;-79
2021/05/12 07:15:37;;;;;;;22.27;12.25;;;13.50;99.90;;;;;;5025725;28;20116;-79
2021/05/12 07:18:03;;;;;;;15.02;10.98;;;13.60;99.90;;;;;;5009259;28;20034;-78
2021/05/12 07:20:29;;;;;;;16.60;11.65;;;13.90;99.90;;;;;;5025818;28;20037;-79
2021/05/12 07:23:05;;;;;;;17.77;10.77;;;14.00;99.90;;;;;;4992977;28;20030;-79
2021/05/12 07:25:32;;;;;;;15.13;8.80;;;14.00;99.90;;;;;;5009033;28;20121;-78
2021/05/12 07:27:59;;;;;;;17.05;10.50;;;13.90;99.90;;;;;;5008822;28;20033;-79
2021/05/12 07:30:25;;;;;;;19.60;10.48;;;13.80;99.90;;;;;;5009072;28;20029;-79
2021/05/12 07:32:51;;;;;;;12.55;8.02;;;14.00;99.90;;;;;;5009000;28;20046;-78
2021/05/12 07:35:17;;;;;;;14.45;9.15;;;14.40;99.90;;;;;;5008907;28;20045;-79
2021/05/12 07:37:43;;;;;;;15.30;8.93;;;14.40;99.90;;;;;;5026346;28;20489;-79
2021/05/12 07:40:10;;;;;;;13.65;8.45;;;14.40;99.90;;;;;;5008441;28;20030;-78
2021/05/12 07:42:38;;;;;;;15.50;7.45;;;14.50;99.90;;;;;;5008810;28;20385;-79
2021/05/12 07:45:04;;;;;;;10.77;6.90;;;14.60;99.90;;;;;;5008426;28;20029;-79
2021/05/12 07:47:29;;;;;;;15.00;6.80;;;14.50;99.90;;;;;;5008521;28;20030;-79
2021/05/12 07:49:55;;;;;;;12.90;5.55;;;14.50;99.90;;;;;;5008474;28;20080;-79
2021/05/12 07:52:20;;;;;;;13.43;6.13;;;14.70;99.90;;;;;;5026040;28;20053;-79
2021/05/12 07:54:48;;;;;;;11.00;5.93;;;14.70;99.90;;;;;;5008648;28;20034;-79
2021/05/12 07:57:15;;;;;;;12.52;6.47;;;14.70;99.90;;;;;;5026372;28;20120;-78
2021/05/12 07:59:40;;;;;;;10.30;5.82;;;14.70;99.90;;;;;;5008155;28;20065;-79
2021/05/12 08:02:07;;;;;;;16.63;5.80;;;14.60;99.90;;;;;;5024601;28;20042;-79
2021/05/12 08:04:34;;;;;;;9.13;5.10;;;14.90;99.90;;;;;;5008195;28;20097;-78
2021/05/12 08:07:00;;;;;;;13.15;5.72;;;14.80;99.90;;;;;;5025207;28;20067;-79
2021/05/12 08:09:26;;;;;;;9.48;4.30;;;15.00;99.90;;;;;;5024300;28;20049;-79
2021/05/12 08:11:52;;;;;;;11.90;4.68;;;14.90;99.90;;;;;;5007742;28;20101;-79
2021/05/12 08:14:19;;;;;;;9.95;2.92;;;15.30;99.90;;;;;;5008036;28;20038;-79
2021/05/12 08:16:45;;;;;;;7.28;1.90;;;15.80;99.90;;;;;;5007651;28;20046;-79
2021/05/12 08:19:15;;;;;;;9.00;2.08;;;16.10;99.90;;;;;;5025272;28;20053;-79
2021/05/12 08:21:42;;;;;;;6.78;2.33;;;15.70;99.90;;;;;;5024053;28;20038;-79
2021/05/12 08:24:08;;;;;;;7.50;2.05;;;15.40;99.90;;;;;;5008851;28;20470;-79
2021/05/12 08:26:34;;;;;;;12.38;2.40;;;15.30;99.90;;;;;;5007691;28;20058;-78
2021/05/12 08:29:01;;;;;;;9.27;2.80;;;15.30;99.90;;;;;;5025153;28;20025;-79
2021/05/12 08:31:28;;;;;;;6.75;2.53;;;15.20;99.90;;;;;;5025305;28;20109;-78
2021/05/12 08:33:53;;;;;;;8.13;2.33;;;15.10;99.90;;;;;;4991402;28;20389;-78
2021/05/12 08:36:19;;;;;;;5.82;1.63;;;15.70;99.90;;;;;;5006858;28;20042;-79
2021/05/12 08:38:46;;;;;;;5.63;1.80;;;15.90;99.90;;;;;;5007659;28;20037;-79
2021/05/12 08:41:17;;;;;;;11.27;2.83;;;15.80;99.90;;;;;;5007662;28;20041;-79
2021/05/12 08:43:43;;;;;;;7.80;2.03;;;15.60;99.90;;;;;;5024135;28;20041;-79
2021/05/12 08:46:10;;;;;;;6.65;1.48;;;15.80;99.90;;;;;;5025201;28;20037;-79
2021/05/12 08:48:40;;;;;;;6.85;1.55;;;15.80;99.90;;;;;;5007571;28;20068;-80
2021/05/12 08:51:10;;;;;;;3.10;1.10;;;16.10;99.90;;;;;;5007324;28;20029;-79
2021/05/12 08:53:37;;;;;;;3.80;0.70;;;15.80;99.90;;;;;;5007645;28;20033;-79
2021/05/12 08:56:05;;;;;;;6.15;0.82;;;15.50;99.90;;;;;;5007391;28;20153;-79
2021/05/12 08:58:32;;;;;;;5.85;1.10;;;15.60;99.90;;;;;;5007124;28;20049;-80
2021/05/12 09:00:57;;;;;;;6.93;1.20;;;15.90;99.90;;;;;;5023769;28;20492;-79
2021/05/12 09:03:27;;;;;;;6.22;2.17;;;16.00;99.90;;;;;;5007622;28;20049;-79
2021/05/12 09:05:55;;;;;;;7.87;2.33;;;15.90;99.90;;;;;;5006315;28;20065;-79
2021/05/12 09:08:21;;;;;;;3.67;1.30;;;15.90;99.90;;;;;;5023474;28;20383;-79
2021/05/12 09:10:46;;;;;;;5.90;2.17;;;16.20;99.90;;;;;;5024904;28;20061;-80
2021/05/12 09:13:36;;;;;;;5.47;1.65;;;15.90;99.90;;;;;;5007189;28;20125;-80
2021/05/12 09:16:21;;;;;;;4.32;1.10;;;16.00;99.90;;;;;;5007379;28;20056;-81
2021/05/12 09:18:59;;;;;;;4.82;1.73;;;16.50;99.90;;;;;;5024986;28;20026;-79
2021/05/12 09:21:44;;;;;;;7.22;1.40;;;15.90;99.90;;;;;;5007253;28;20113;-79
2021/05/12 09:24:38;;;;;;;5.60;0.85;;;16.80;99.90;;;;;;5008510;28;20100;-78
2021/05/12 09:27:15;;;;;;;5.85;1.40;;;17.50;99.90;;;;;;5023388;28;20034;-79
2021/05/12 09:29:43;;;;;;;5.95;1.90;;;17.00;99.90;;;;;;5024637;28;20060;-79
2021/05/12 09:32:17;;;;;;;6.15;1.30;;;16.60;99.90;;;;;;5023253;28;20065;-79
2021/05/12 09:35:03;;;;;;;4.65;1.50;;;15.80;99.90;;;;;;5024868;28;20049;-80
2021/05/12 09:37:31;;;;;;;4.28;1.38;;;16.30;99.90;;;;;;5006622;28;20038;-79
2021/05/12 09:39:59;;;;;;;4.95;1.60;;;16.50;99.90;;;;;;5024494;28;20034;-79
2021/05/12 09:42:25;;;;;;;3.83;0.73;;;16.90;99.90;;;;;;5024785;28;20050;-79
2021/05/12 09:45:16;;;;;;;7.03;1.20;;;17.70;99.90;;;;;;4990781;28;20045;-79
2021/05/12 09:47:53;;;;;;;;;;;18.10;99.90;;;;;;4999580;28;20065;-79
2021/05/12 09:50:26;;;;;;;4.95;1.00;;;17.60;99.90;;;;;;5010487;28;19920;-79
2021/05/12 09:52:59;;;;;;;5.63;0.80;;;18.10;99.90;;;;;;5028169;28;20030;-80
2021/05/12 09:55:39;;;;;;;8.57;1.17;;;18.90;99.90;;;;;;5010394;28;20056;-79
2021/05/12 09:58:08;;;;;;;3.50;0.73;;;17.70;99.90;;;;;;5010250;28;20096;-81
2021/05/12 10:00:36;;;;;;;6.78;0.85;;;17.80;99.90;;;;;;5010001;28;20065;-80
2021/05/12 10:03:05;;;;;;;4.57;0.70;;;17.40;99.90;;;;;;5026713;28;20128;-79
2021/05/12 10:06:09;;;;;;;5.90;0.80;;;17.80;99.90;;;;;;5010127;28;20034;-79
2021/05/12 10:08:36;;;;;;;5.68;1.05;;;17.90;99.90;;;;;;4931390;29;20059;-80
2021/05/12 10:11:04;;;;;;;7.13;1.08;;;16.80;99.90;;;;;;4947616;29;20032;-79
2021/05/12 10:13:31;;;;;;;6.75;0.90;;;17.10;99.90;;;;;;4931781;29;20500;-79
2021/05/12 10:15:57;;;;;;;4.30;0.70;;;17.50;99.90;;;;;;4947439;29;20090;-79
2021/05/12 10:18:23;;;;;;;4.20;0.52;;;17.10;99.90;;;;;;4931629;29;20032;-78
2021/05/12 10:20:49;;;;;;;4.38;0.60;;;16.30;99.90;;;;;;4947583;29;20099;-79
2021/05/12 10:23:15;;;;;;;5.32;0.47;;;16.10;99.90;;;;;;4931670;29;20051;-80
2021/05/12 10:25:41;;;;;;;3.08;0.38;;;16.80;99.90;;;;;;4944671;29;20063;-79
2021/05/12 10:28:08;;;;;;;3.28;0.30;;;17.40;99.90;;;;;;4947287;29;20075;-79
2021/05/12 10:30:35;;;;;;;9.30;0.50;;;16.80;99.90;;;;;;4947202;29;20035;-79
2021/05/12 10:33:00;;;;;;;5.50;0.45;;;16.60;99.90;;;;;;4947370;29;20547;-79
2021/05/12 10:35:38;;;;;;;3.17;0.30;;;17.40;99.90;;;;;;4947187;29;20039;-79
2021/05/12 10:38:05;;;;;;;4.97;0.60;;;18.20;99.90;;;;;;4947244;29;20047;-80
2021/05/12 10:40:39;;;;;;;3.78;0.55;;;17.00;99.90;;;;;;4947202;29;20475;-79
2021/05/12 10:43:22;;;;;;;4.22;0.50;;;16.70;99.90;;;;;;4947053;29;20042;-79
2021/05/12 10:45:54;;;;;;;3.03;0.40;;;16.20;99.90;;;;;;4983378;28;20038;-79
2021/05/12 10:48:37;;;;;;;6.13;0.50;;;16.00;99.90;;;;;;5009461;28;20088;-79
2021/05/12 10:51:06;;;;;;;7.38;0.63;;;16.00;99.90;;;;;;5025806;28;20107;-79
2021/05/12 10:53:34;;;;;;;3.65;0.60;;;16.60;99.90;;;;;;5009339;28;20378;-80
2021/05/12 10:56:02;;;;;;;5.40;0.50;;;17.60;99.90;;;;;;5009239;28;20034;-80
2021/05/12 10:58:52;;;;;;;3.75;0.50;;;16.90;99.90;;;;;;4992817;28;20441;-80
2021/05/12 11:01:18;;;;;;;2.80;0.40;;;16.60;99.90;;;;;;4998837;28;20041;-80
2021/05/12 11:03:52;;;;;;;5.45;0.40;;;16.90;99.90;;;;;;4993036;28;20082;-81
2021/05/12 11:06:46;;;;;;;5.10;0.50;;;16.90;99.90;;;;;;5025255;28;20061;-79
2021/05/12 11:09:19;;;;;;;4.82;0.40;;;16.40;99.90;;;;;;4992171;28;20050;-79
2021/05/12 11:11:45;;;;;;;4.28;0.40;;;16.30;99.90;;;;;;5026864;28;20057;-81
2021/05/12 11:14:26;;;;;;;3.47;0.30;;;16.70;99.90;;;;;;5025404;28;20041;-79
2021/05/12 11:17:06;;;;;;;5.10;0.38;;;16.40;99.90;;;;;;5026309;28;20066;-79
2021/05/12 11:19:37;;;;;;;3.47;0.77;;;16.40;99.90;;;;;;5025227;28;20030;-79
2021/05/12 11:24:53;;;;;;;6.78;0.50;;;16.60;99.90;;;;;;5031765;28;20034;-80
2021/05/12 11:27:48;;;;;;;2.30;0.30;;;17.40;99.90;;;;;;5008671;28;20026;-80
2021/05/12 11:33:01;;;;;;;3.75;0.30;;;18.20;99.90;;;;;;5026129;28;20030;-79
2021/05/12 11:35:27;;;;;;;3.03;0.30;;;18.80;99.90;;;;;;5024944;28;20561;-79
2021/05/12 11:37:52;;;;;;;2.90;0.30;;;18.30;99.90;;;;;;5026068;28;20038;-79
2021/05/12 11:40:18;;;;;;;3.25;0.40;;;17.80;99.90;;;;;;5041273;28;20117;-79
2021/05/12 11:42:45;;;;;;;2.38;0.40;;;17.40;99.90;;;;;;5041323;28;20104;-79
2021/05/12 11:45:20;;;;;;;4.15;0.30;;;17.50;99.90;;;;;;5008510;28;20065;-79
2021/05/12 11:48:02;;;;;;;4.47;0.22;;;17.40;99.90;;;;;;5025886;28;20036;-79
2021/05/12 11:50:39;;;;;;;3.75;0.45;;;17.30;99.90;;;;;;5041165;28;20048;-81
2021/05/12 11:53:04;;;;;;;3.70;0.50;;;16.70;99.90;;;;;;5041091;28;20385;-80
2021/05/12 11:55:33;;;;;;;5.85;0.47;;;16.30;99.90;;;;;;5026019;28;20033;-79
2021/05/12 11:57:59;;;;;;;4.30;0.50;;;16.20;99.90;;;;;;5008116;28;20042;-80
2021/05/12 12:00:33;;;;;;;5.60;0.43;;;17.00;99.90;;;;;;5008029;28;20080;-81
2021/05/12 12:03:08;;;;;;;4.07;0.40;;;18.00;99.90;;;;;;5008129;28;20437;-80
2021/05/12 12:06:02;;;;;;;3.25;0.50;;;18.30;99.90;;;;;;5025598;28;20050;-80
2021/05/12 12:08:28;;;;;;;2.88;0.30;;;18.90;99.90;;;;;;4926359;29;20060;-81
2021/05/12 12:11:15;;;;;;;3.28;0.30;;;18.20;99.90;;;;;;4926002;29;20040;-80
2021/05/12 12:13:44;;;;;;;3.65;0.30;;;17.50;99.90;;;;;;4926849;29;20091;-80
2021/05/12 12:16:11;;;;;;;2.97;0.30;;;17.60;99.90;;;;;;4926754;29;20055;-80
2021/05/12 12:18:39;;;;;;;2.92;0.40;;;17.30;99.90;;;;;;4926331;29;20060;-79
2021/05/12 12:21:06;;;;;;;2.58;0.32;;;17.30;99.90;;;;;;4926839;29;20096;-79
2021/05/12 12:23:42;;;;;;;2.95;0.30;;;17.20;99.90;;;;;;4926679;29;20055;-79
2021/05/12 12:26:19;;;;;;;3.80;0.40;;;17.60;99.90;;;;;;4929812;29;20048;-80
2021/05/12 12:29:06;;;;;;;3.92;0.30;;;17.30;99.90;;;;;;4945262;29;20207;-79
2021/05/12 12:31:47;;;;;;;5.35;0.30;;;17.50;99.90;;;;;;4929473;29;20032;-79
2021/05/12 12:34:17;;;;;;;2.45;0.50;;;18.10;99.90;;;;;;4945416;29;20035;-79
2021/05/12 12:36:59;;;;;;;2.97;0.32;;;18.50;99.90;;;;;;4945141;29;20055;-80
2021/05/12 12:39:42;;;;;;;3.05;0.45;;;18.30;99.90;;;;;;4945311;29;20063;-79
2021/05/12 12:42:09;;;;;;;4.28;0.30;;;19.30;99.90;;;;;;4945552;29;20046;-82
2021/05/12 12:44:44;;;;;;;2.13;0.30;;;19.70;99.90;;;;;;4957914;28;20042;-79
2021/05/12 12:47:19;;;;;;;3.30;0.50;;;19.00;99.90;;;;;;5007598;28;20034;-80
2021/05/12 12:50:00;;;;;;;4.05;0.30;;;18.40;99.90;;;;;;5023911;28;20025;-79
2021/05/12 12:52:33;;;;;;;3.13;0.28;;;18.50;99.90;;;;;;5040655;28;20037;-79
2021/05/12 12:55:09;;;;;;;4.05;0.47;;;19.10;99.90;;;;;;5040461;28;20026;-79
2021/05/12 12:57:56;;;;;;;3.13;0.40;;;18.80;99.90;;;;;;5040331;28;20382;-80
2021/05/12 13:00:30;;;;;;;4.97;0.88;;;18.10;99.90;;;;;;5039985;28;20037;-79
2021/05/12 13:03:24;;;;;;;3.95;0.77;;;17.70;99.90;;;;;;5040250;28;20119;-79